createdAt,value
2019-03-17T00:00:10.054Z,11.90
2019-03-17T00:02:38.521Z,6.53
2019-03-17T00:05:07.293Z,9.35
2019-03-17T00:07:35.819Z,13.10
2019-03-17T00:10:04.831Z,6.95
2019-03-17T00:12:33.450Z,8.88
2019-03-17T00:15:05.689Z,8.48
2019-03-17T00:17:32.619Z,9.93
2019-03-17T00:20:01.194Z,8.43
2019-03-17T00:22:29.787Z,10.55
2019-03-17T00:25:08.618Z,10.82
2019-03-17T00:27:28.889Z,10.65
2019-03-17T00:29:57.563Z,9.08
2019-03-17T00:32:26.035Z,11.95
2019-03-17T00:34:54.567Z,10.00
2019-03-17T00:37:23.081Z,11.05
2019-03-17T00:39:51.629Z,11.43
2019-03-17T00:42:20.218Z,10.88
2019-03-17T00:44:48.785Z,8.68
2019-03-17T00:47:17.573Z,10.90
2019-03-17T00:49:46.035Z,12.28
2019-03-17T00:52:14.571Z,12.33
2019-03-17T00:54:43.125Z,10.10
2019-03-17T00:57:11.610Z,12.75
2019-03-17T00:59:40.173Z,8.63
2019-03-17T01:02:08.758Z,10.18
2019-03-17T01:04:37.223Z,13.38
2019-03-17T01:07:05.759Z,10.28
2019-03-17T01:09:34.225Z,10.32
2019-03-17T01:12:02.829Z,8.40
2019-03-17T01:14:31.320Z,8.43
2019-03-17T01:16:59.855Z,10.30
2019-03-17T01:19:28.314Z,11.12
2019-03-17T01:21:56.789Z,9.98
2019-03-17T01:24:25.272Z,9.18
2019-03-17T01:26:54.055Z,9.25
2019-03-17T01:29:22.558Z,13.58
2019-03-17T01:31:51.011Z,8.73
2019-03-17T01:34:19.530Z,12.18
2019-03-17T01:36:48.100Z,13.00
2019-03-17T01:39:16.562Z,10.23
2019-03-17T01:41:45.407Z,13.05
2019-03-17T01:44:13.914Z,12.40
2019-03-17T01:46:42.447Z,8.65
2019-03-17T01:49:10.894Z,8.18
2019-03-17T01:51:39.402Z,11.18
2019-03-17T01:54:07.862Z,12.98
2019-03-17T01:56:36.384Z,9.85
2019-03-17T01:59:05.394Z,12.95
2019-03-17T02:01:33.853Z,11.08
2019-03-17T02:04:02.398Z,10.38
2019-03-17T02:06:30.973Z,9.68
2019-03-17T02:08:59.642Z,10.13
2019-03-17T02:11:28.126Z,13.78
2019-03-17T02:13:56.691Z,9.75
2019-03-17T02:16:25.224Z,12.90
2019-03-17T02:18:53.727Z,10.80
2019-03-17T02:21:22.286Z,11.20
2019-03-17T02:23:50.742Z,10.60
2019-03-17T02:26:19.197Z,14.53
2019-03-17T02:28:47.762Z,13.90
2019-03-17T02:31:16.222Z,10.55
2019-03-17T02:33:44.681Z,13.45
2019-03-17T02:36:13.280Z,13.15
2019-03-17T02:38:41.805Z,12.55
2019-03-17T02:41:10.891Z,14.25
2019-03-17T02:43:39.438Z,15.93
2019-03-17T02:46:08.056Z,12.85
2019-03-17T02:48:36.530Z,12.82
2019-03-17T02:51:05.118Z,15.85
2019-03-17T02:53:33.634Z,16.10
2019-03-17T02:56:02.105Z,14.60
2019-03-17T02:58:30.741Z,12.65
2019-03-17T03:00:59.223Z,14.28
2019-03-17T03:03:27.767Z,13.65
2019-03-17T03:05:56.337Z,11.97
2019-03-17T03:08:24.868Z,15.05
2019-03-17T03:10:53.416Z,12.58
2019-03-17T03:13:22.336Z,14.93
2019-03-17T03:15:50.875Z,13.95
2019-03-17T03:18:19.433Z,12.82
2019-03-17T03:20:48.194Z,14.40
2019-03-17T03:23:16.769Z,12.30
2019-03-17T03:25:45.275Z,13.93
2019-03-17T03:28:13.800Z,14.33
2019-03-17T03:30:42.266Z,12.37
2019-03-17T03:33:10.836Z,13.60
2019-03-17T03:35:39.465Z,11.75
2019-03-17T03:38:07.979Z,10.60
2019-03-17T03:40:36.541Z,13.68
2019-03-17T03:43:05.176Z,11.80
2019-03-17T03:45:33.640Z,15.88
2019-03-17T03:48:02.131Z,11.00
2019-03-17T03:50:30.856Z,18.17
2019-03-17T03:52:59.318Z,10.32
2019-03-17T03:55:27.775Z,11.00
2019-03-17T03:57:56.339Z,9.48
2019-03-17T04:00:28.047Z,8.55
2019-03-17T04:02:56.499Z,7.62
2019-03-17T04:05:25.073Z,7.08
2019-03-17T04:07:53.660Z,8.35
2019-03-17T04:10:22.223Z,9.50
2019-03-17T04:12:50.752Z,8.05
2019-03-17T04:15:19.332Z,9.20
2019-03-17T04:17:47.921Z,8.60
2019-03-17T04:20:16.517Z,7.95
2019-03-17T04:22:45.032Z,6.78
2019-03-17T04:25:17.822Z,4.05
2019-03-17T04:27:46.513Z,5.85
2019-03-17T04:30:15.049Z,4.60
2019-03-17T04:32:43.865Z,5.10
2019-03-17T04:35:12.435Z,4.12
2019-03-17T04:37:40.976Z,2.90
2019-03-17T04:40:10.467Z,7.45
2019-03-17T04:42:39.070Z,4.95
2019-03-17T04:45:08.312Z,3.70
2019-03-17T04:47:36.852Z,4.42
2019-03-17T04:50:06.999Z,5.58
2019-03-17T04:52:35.904Z,3.92
2019-03-17T04:55:06.325Z,7.72
2019-03-17T04:57:34.909Z,2.58
2019-03-17T05:00:04.508Z,5.15
2019-03-17T05:02:33.069Z,5.50
2019-03-17T05:05:01.570Z,1.75
2019-03-17T05:07:30.027Z,2.00
2019-03-17T05:09:58.565Z,3.62
2019-03-17T05:12:27.137Z,4.47
2019-03-17T05:14:55.660Z,2.47
2019-03-17T05:17:24.150Z,3.87
2019-03-17T05:19:52.733Z,5.95
2019-03-17T05:22:21.270Z,3.33
2019-03-17T05:24:49.819Z,3.92
2019-03-17T05:27:18.680Z,3.67
2019-03-17T05:29:47.451Z,3.42
2019-03-17T05:32:15.964Z,5.15
2019-03-17T05:34:45.035Z,3.98
2019-03-17T05:37:13.542Z,6.42
2019-03-17T05:39:42.332Z,3.87
2019-03-17T05:42:10.898Z,6.65
2019-03-17T05:44:39.431Z,5.60
2019-03-17T05:47:07.951Z,5.50
2019-03-17T05:49:36.481Z,5.35
2019-03-17T05:52:04.999Z,7.25
2019-03-17T05:54:33.488Z,7.00
2019-03-17T05:57:02.395Z,7.87
2019-03-17T05:59:31.283Z,7.35
2019-03-17T06:02:02.159Z,10.75
2019-03-17T06:04:30.302Z,6.25
2019-03-17T06:06:58.784Z,7.42
2019-03-17T06:09:27.356Z,3.58
2019-03-17T06:11:55.838Z,11.35
2019-03-17T06:14:24.350Z,9.08
2019-03-17T06:16:52.853Z,7.78
2019-03-17T06:19:21.430Z,8.38
2019-03-17T06:21:49.976Z,7.95
2019-03-17T06:24:18.531Z,8.38
2019-03-17T06:26:47.420Z,7.67
2019-03-17T06:29:16.000Z,8.20
2019-03-17T06:31:44.589Z,12.60
2019-03-17T06:34:13.076Z,10.80
2019-03-17T06:36:41.617Z,7.30
2019-03-17T06:39:10.142Z,12.53
2019-03-17T06:41:38.720Z,8.03
2019-03-17T06:44:07.250Z,10.15
2019-03-17T06:46:35.859Z,9.48
2019-03-17T06:49:04.400Z,6.58
2019-03-17T06:51:32.866Z,8.60
2019-03-17T06:54:01.407Z,7.55
2019-03-17T06:56:30.255Z,10.85
2019-03-17T06:58:59.052Z,8.13
2019-03-17T07:01:27.650Z,7.28
2019-03-17T07:03:56.174Z,10.25
2019-03-17T07:06:25.035Z,7.53
2019-03-17T07:08:53.515Z,9.53
2019-03-17T07:11:24.063Z,9.08
2019-03-17T07:13:52.554Z,7.97
2019-03-17T07:16:21.086Z,10.53
2019-03-17T07:18:49.660Z,7.25
2019-03-17T07:21:18.254Z,9.35
2019-03-17T07:23:46.833Z,11.43
2019-03-17T07:26:15.418Z,10.15
2019-03-17T07:28:43.868Z,9.95
2019-03-17T07:31:12.335Z,7.97
2019-03-17T07:33:40.831Z,6.17
2019-03-17T07:36:09.323Z,7.20
2019-03-17T07:38:37.853Z,6.78
2019-03-17T07:41:06.414Z,7.40
2019-03-17T07:43:34.964Z,9.73
2019-03-17T07:46:03.807Z,7.10
2019-03-17T07:48:32.291Z,7.80
2019-03-17T07:51:00.760Z,6.30
2019-03-17T07:53:29.221Z,6.72
2019-03-17T07:55:59.391Z,5.03
2019-03-17T07:58:27.850Z,9.25
2019-03-17T08:00:56.363Z,6.47
2019-03-17T08:03:25.013Z,7.33
2019-03-17T08:05:53.584Z,7.87
2019-03-17T08:08:22.248Z,9.15
2019-03-17T08:10:50.903Z,7.97
2019-03-17T08:13:19.529Z,6.87
2019-03-17T08:15:48.040Z,10.20
2019-03-17T08:18:17.039Z,10.15
2019-03-17T08:20:45.599Z,12.25
2019-03-17T08:23:14.056Z,7.85
2019-03-17T08:25:42.647Z,11.65
2019-03-17T08:28:11.185Z,7.53
2019-03-17T08:30:52.433Z,8.28
2019-03-17T08:33:11.682Z,8.35
2019-03-17T08:35:40.244Z,8.33
2019-03-17T08:38:20.904Z,10.88
2019-03-17T08:40:38.967Z,11.97
2019-03-17T08:43:08.038Z,8.15
2019-03-17T08:45:36.572Z,6.28
2019-03-17T08:48:05.141Z,5.42
2019-03-17T08:50:33.642Z,7.17
2019-03-17T08:53:02.190Z,7.75
2019-03-17T08:55:30.806Z,8.05
2019-03-17T08:57:59.368Z,7.37
2019-03-17T09:00:30.593Z,6.83
2019-03-17T09:02:59.119Z,5.75
2019-03-17T09:05:27.717Z,6.95
2019-03-17T09:07:56.360Z,6.00
2019-03-17T09:10:25.055Z,5.42
2019-03-17T09:12:54.127Z,7.83
2019-03-17T09:15:22.624Z,8.60
2019-03-17T09:17:51.129Z,8.13
2019-03-17T09:20:19.683Z,4.65
2019-03-17T09:22:48.294Z,6.08
2019-03-17T09:25:22.889Z,5.25
2019-03-17T09:27:57.570Z,6.37
2019-03-17T09:30:22.012Z,6.00
2019-03-17T09:33:02.274Z,7.92
2019-03-17T09:35:20.849Z,7.47
2019-03-17T09:37:52.571Z,6.60
2019-03-17T09:40:21.510Z,6.60
2019-03-17T09:42:50.083Z,5.42
2019-03-17T09:45:18.733Z,3.83
2019-03-17T09:47:47.375Z,4.53
2019-03-17T09:50:20.037Z,5.08
2019-03-17T09:52:48.748Z,4.95
2019-03-17T09:55:17.380Z,4.87
2019-03-17T09:57:47.609Z,5.85
2019-03-17T10:00:20.223Z,4.60
2019-03-17T10:02:48.808Z,5.03
2019-03-17T10:05:17.596Z,4.42
2019-03-17T10:07:46.065Z,4.12
2019-03-17T10:10:20.957Z,5.40
2019-03-17T10:12:51.122Z,3.45
2019-03-17T10:18:23.690Z,4.30
2019-03-17T10:20:53.962Z,4.25
2019-03-17T10:23:22.516Z,3.83
2019-03-17T10:25:53.507Z,3.62
2019-03-17T10:28:30.725Z,4.10
2019-03-17T10:30:59.259Z,4.37
2019-03-17T10:33:27.780Z,4.17
2019-03-17T10:35:56.449Z,3.00
2019-03-17T10:38:25.332Z,5.58
2019-03-17T10:40:53.818Z,3.77
2019-03-17T10:43:22.437Z,3.58
2019-03-17T10:45:50.943Z,3.55
2019-03-17T10:48:19.424Z,3.85
2019-03-17T10:50:49.746Z,4.35
2019-03-17T10:53:18.246Z,4.87
2019-03-17T10:55:46.730Z,3.00
2019-03-17T10:58:15.296Z,3.47
2019-03-17T11:00:43.823Z,3.40
2019-03-17T11:03:12.374Z,4.62
2019-03-17T11:05:40.898Z,3.98
2019-03-17T11:08:09.440Z,3.27
2019-03-17T11:10:37.953Z,6.30
2019-03-17T11:13:06.471Z,4.95
2019-03-17T11:15:35.046Z,2.95
2019-03-17T11:18:03.697Z,3.87
2019-03-17T11:20:32.285Z,1.60
2019-03-17T11:23:01.170Z,1.82
2019-03-17T11:25:29.721Z,3.65
2019-03-17T11:27:58.248Z,2.20
2019-03-17T11:30:26.823Z,5.42
2019-03-17T11:32:55.409Z,5.40
2019-03-17T11:35:24.201Z,3.85
2019-03-17T11:37:52.683Z,2.77
2019-03-17T11:40:21.682Z,5.90
2019-03-17T11:42:50.477Z,3.87
2019-03-17T11:45:19.236Z,5.08
2019-03-17T11:47:47.905Z,3.80
2019-03-17T11:50:17.641Z,1.92
2019-03-17T11:52:46.363Z,3.10
2019-03-17T11:55:15.397Z,1.72
2019-03-17T11:57:44.253Z,2.40
2019-03-17T12:00:20.338Z,1.20
2019-03-17T12:02:48.947Z,2.60
2019-03-17T12:05:17.541Z,3.25
2019-03-17T12:07:46.182Z,2.87
2019-03-17T12:10:20.588Z,3.12
2019-03-17T12:12:49.063Z,3.62
2019-03-17T12:15:31.684Z,2.15
2019-03-17T12:18:01.638Z,3.22
2019-03-17T12:20:31.459Z,4.53
2019-03-17T12:22:59.975Z,5.00
2019-03-17T12:25:28.639Z,3.80
2019-03-17T12:27:57.279Z,2.72
2019-03-17T12:30:26.804Z,5.03
2019-03-17T12:32:59.087Z,2.17
2019-03-17T12:35:27.417Z,3.58
2019-03-17T12:37:56.097Z,2.87
2019-03-17T12:40:24.630Z,3.65
2019-03-17T12:42:53.199Z,4.72
2019-03-17T12:45:22.039Z,2.67
2019-03-17T12:47:52.332Z,3.33
2019-03-17T12:50:23.153Z,2.90
2019-03-17T12:52:52.015Z,2.95
2019-03-17T12:55:20.875Z,4.55
2019-03-17T12:57:50.153Z,7.28
2019-03-17T13:00:26.073Z,5.00
2019-03-17T13:02:54.970Z,5.42
2019-03-17T13:05:23.578Z,4.65
2019-03-17T13:07:52.118Z,5.53
2019-03-17T13:10:21.850Z,3.58
2019-03-17T13:12:50.597Z,7.10
2019-03-17T13:15:20.793Z,4.60
2019-03-17T13:17:50.855Z,5.37
2019-03-17T13:20:20.337Z,5.42
2019-03-17T13:22:48.936Z,5.67
2019-03-17T13:25:19.112Z,4.37
2019-03-17T13:27:47.865Z,4.15
2019-03-17T13:30:18.397Z,4.45
2019-03-17T13:32:55.210Z,7.75
2019-03-17T13:35:20.881Z,5.25
2019-03-17T13:37:49.562Z,3.52
2019-03-17T13:40:29.347Z,4.75
2019-03-17T13:43:03.960Z,5.37
2019-03-17T13:45:23.345Z,4.53
2019-03-17T13:47:53.205Z,4.42
2019-03-17T13:50:23.298Z,4.58
2019-03-17T13:52:53.541Z,3.20
2019-03-17T13:55:22.231Z,4.42
2019-03-17T13:58:02.730Z,7.53
2019-03-17T14:00:31.380Z,7.35
2019-03-17T14:02:59.912Z,4.85
2019-03-17T14:05:28.656Z,5.53
2019-03-17T14:07:57.365Z,4.22
2019-03-17T14:10:41.216Z,2.85
2019-03-17T14:13:07.342Z,3.75
2019-03-17T14:15:37.550Z,2.37
2019-03-17T14:18:06.079Z,3.72
2019-03-17T14:20:36.085Z,2.92
2019-03-17T14:23:04.755Z,4.65
2019-03-17T14:25:35.648Z,2.62
2019-03-17T14:28:04.409Z,2.80
2019-03-17T14:30:32.992Z,3.08
2019-03-17T14:33:01.498Z,3.95
2019-03-17T14:35:30.103Z,3.60
2019-03-17T14:38:03.268Z,2.50
2019-03-17T14:40:31.803Z,3.43
2019-03-17T14:43:00.357Z,3.45
2019-03-17T14:45:29.696Z,4.72
2019-03-17T14:47:58.231Z,3.10
2019-03-17T14:50:26.946Z,3.80
2019-03-17T14:52:55.669Z,2.85
2019-03-17T14:55:24.172Z,5.65
2019-03-17T14:57:52.745Z,3.90
2019-03-17T15:00:25.007Z,3.42
2019-03-17T15:02:53.740Z,1.77
2019-03-17T15:05:25.157Z,4.60
2019-03-17T15:07:52.549Z,2.45
2019-03-17T15:10:22.374Z,1.25
2019-03-17T15:12:50.934Z,1.02
2019-03-17T15:15:20.560Z,1.75
2019-03-17T15:17:49.347Z,2.60
2019-03-17T15:20:28.579Z,1.70
2019-03-17T15:22:58.847Z,4.05
2019-03-17T15:25:27.762Z,11.15
2019-03-17T15:27:57.795Z,2.22
2019-03-17T15:30:27.425Z,1.77
2019-03-17T15:32:56.388Z,4.15
2019-03-17T15:35:25.021Z,3.55
2019-03-17T15:37:53.772Z,2.02
2019-03-17T15:40:22.567Z,1.85
2019-03-17T15:42:51.214Z,3.22
2019-03-17T15:45:21.881Z,2.70
2019-03-17T15:47:52.162Z,1.22
2019-03-17T15:50:30.994Z,2.12
2019-03-17T15:52:59.652Z,2.62
2019-03-17T15:55:28.288Z,2.50
2019-03-17T15:58:03.084Z,2.60
2019-03-17T16:00:27.705Z,1.45
2019-03-17T16:02:56.481Z,3.35
2019-03-17T16:05:25.269Z,4.30
2019-03-17T16:07:54.228Z,2.90
2019-03-17T16:10:26.122Z,3.40
2019-03-17T16:12:54.620Z,3.10
2019-03-17T16:15:23.245Z,2.70
2019-03-17T16:17:51.975Z,3.02
2019-03-17T16:20:26.708Z,2.72
2019-03-17T16:22:55.452Z,3.87
2019-03-17T16:25:36.253Z,4.20
2019-03-17T16:28:05.335Z,4.30
2019-03-17T16:30:34.258Z,1.80
2019-03-17T16:33:03.025Z,2.10
2019-03-17T16:35:31.704Z,4.35
2019-03-17T16:38:00.411Z,3.47
2019-03-17T16:40:33.287Z,2.00
2019-03-17T16:43:02.063Z,2.50
2019-03-17T16:45:30.642Z,3.40
2019-03-17T16:47:59.289Z,3.25
2019-03-17T16:50:27.877Z,3.27
2019-03-17T16:52:56.471Z,6.20
2019-03-17T16:55:25.172Z,4.60
2019-03-17T16:57:53.727Z,2.92
2019-03-17T17:00:25.513Z,3.67
2019-03-17T17:02:54.183Z,3.55
2019-03-17T17:05:23.775Z,5.22
2019-03-17T17:07:52.412Z,7.40
2019-03-17T17:10:32.153Z,3.95
2019-03-17T17:13:00.726Z,4.92
2019-03-17T17:15:33.030Z,3.10
2019-03-17T17:18:01.668Z,3.83
2019-03-17T17:20:34.600Z,2.90
2019-03-17T17:23:03.595Z,2.75
2019-03-17T17:25:32.211Z,2.35
2019-03-17T17:28:00.792Z,3.27
2019-03-17T17:30:29.425Z,4.12
2019-03-17T17:32:58.258Z,2.62
2019-03-17T17:35:52.669Z,4.45
2019-03-17T17:38:00.385Z,3.62
2019-03-17T17:40:29.104Z,5.10
2019-03-17T17:42:57.854Z,3.50
2019-03-17T17:45:26.874Z,3.08
2019-03-17T17:47:55.714Z,3.27
2019-03-17T17:50:29.324Z,4.47
2019-03-17T17:52:58.171Z,4.17
2019-03-17T17:55:26.843Z,4.70
2019-03-17T17:57:55.855Z,2.47
2019-03-17T18:00:38.676Z,2.70
2019-03-17T18:03:07.278Z,4.45
2019-03-17T18:05:35.862Z,4.80
2019-03-17T18:08:04.854Z,9.00
2019-03-17T18:10:33.404Z,7.03
2019-03-17T18:13:01.976Z,6.10
2019-03-17T18:15:34.428Z,6.30
2019-03-17T18:18:06.156Z,5.47
2019-03-17T18:20:34.913Z,5.47
2019-03-17T18:23:03.560Z,6.28
2019-03-17T18:25:32.106Z,5.05
2019-03-17T18:28:00.708Z,4.75
2019-03-17T18:30:29.472Z,5.35
2019-03-17T18:33:00.803Z,6.12
2019-03-17T18:35:29.424Z,6.17
2019-03-17T18:37:58.051Z,5.83
2019-03-17T18:40:26.572Z,5.65
2019-03-17T18:42:55.135Z,7.37
2019-03-17T18:45:25.184Z,6.72
2019-03-17T18:47:53.842Z,6.83
2019-03-17T18:50:22.729Z,8.53
2019-03-17T18:52:51.470Z,6.30
2019-03-17T18:55:23.176Z,8.15
2019-03-17T18:57:51.789Z,4.00
2019-03-17T19:00:25.340Z,7.45
2019-03-17T19:02:53.861Z,4.53
2019-03-17T19:05:22.453Z,3.58
2019-03-17T19:07:50.914Z,4.72
2019-03-17T19:10:28.535Z,4.70
2019-03-17T19:12:57.114Z,5.85
2019-03-17T19:15:25.685Z,3.55
2019-03-17T19:17:59.352Z,4.97
2019-03-17T19:20:27.970Z,3.70
2019-03-17T19:22:56.756Z,3.92
2019-03-17T19:25:25.962Z,7.05
2019-03-17T19:27:54.620Z,3.58
2019-03-17T19:30:23.687Z,4.75
2019-03-17T19:32:52.418Z,5.95
2019-03-17T19:35:20.987Z,6.35
2019-03-17T19:37:49.779Z,4.42
2019-03-17T19:40:23.113Z,4.17
2019-03-17T19:42:59.668Z,5.42
2019-03-17T19:45:22.266Z,4.17
2019-03-17T19:47:50.873Z,4.35
2019-03-17T19:50:20.686Z,6.10
2019-03-17T19:52:49.365Z,4.30
2019-03-17T19:55:18.085Z,3.55
2019-03-17T19:57:46.820Z,3.20
2019-03-17T20:00:16.757Z,4.97
2019-03-17T20:02:47.551Z,3.92
2019-03-17T20:05:16.070Z,4.22
2019-03-17T20:07:44.703Z,3.92
2019-03-17T20:10:16.383Z,4.83
2019-03-17T20:12:45.084Z,6.00
2019-03-17T20:15:13.798Z,6.15
2019-03-17T20:17:42.399Z,5.97
2019-03-17T20:20:13.193Z,4.00
2019-03-17T20:22:41.831Z,5.50
2019-03-17T20:25:10.535Z,5.72
2019-03-17T20:27:39.291Z,3.35
2019-03-17T20:30:11.088Z,5.70
2019-03-17T20:32:39.774Z,4.05
2019-03-17T20:35:12.644Z,5.83
2019-03-17T20:37:41.121Z,4.72
2019-03-17T20:40:15.759Z,5.97
2019-03-17T20:42:44.628Z,4.53
2019-03-17T20:45:14.359Z,5.67
2019-03-17T20:47:44.620Z,6.30
2019-03-17T20:50:18.447Z,6.67
2019-03-17T20:52:51.939Z,5.70
2019-03-17T20:55:20.489Z,4.47
2019-03-17T20:57:49.036Z,4.55
2019-03-17T21:00:22.395Z,4.70
2019-03-17T21:02:50.926Z,4.62
2019-03-17T21:05:19.458Z,4.62
2019-03-17T21:07:48.033Z,7.45
2019-03-17T21:10:17.211Z,6.97
2019-03-17T21:12:46.001Z,8.48
2019-03-17T21:15:22.717Z,5.72
2019-03-17T21:17:51.374Z,5.45
2019-03-17T21:20:23.736Z,7.22
2019-03-17T21:22:52.217Z,5.78
2019-03-17T21:25:20.815Z,7.97
2019-03-17T21:27:49.285Z,10.05
2019-03-17T21:30:26.754Z,8.30
2019-03-17T21:32:55.323Z,7.92
2019-03-17T21:35:23.821Z,5.55
2019-03-17T21:37:52.326Z,6.35
2019-03-17T21:40:20.834Z,6.45
2019-03-17T21:42:49.381Z,7.28
2019-03-17T21:45:17.848Z,7.62
2019-03-17T21:47:46.381Z,5.75
2019-03-17T21:50:19.638Z,7.12
2019-03-17T21:52:49.707Z,6.22
2019-03-17T21:55:19.840Z,6.67
2019-03-17T21:57:48.316Z,7.28
2019-03-17T22:00:18.260Z,7.85
2019-03-17T22:02:46.815Z,9.50
2019-03-17T22:05:15.476Z,6.65
2019-03-17T22:07:50.363Z,6.15
2019-03-17T22:10:19.753Z,7.10
2019-03-17T22:12:48.327Z,8.45
2019-03-17T22:15:20.134Z,6.03
2019-03-17T22:17:48.631Z,8.70
2019-03-17T22:20:17.346Z,7.47
2019-03-17T22:22:46.786Z,7.17
2019-03-17T22:25:15.967Z,8.63
2019-03-17T22:27:44.500Z,7.22
2019-03-17T22:30:22.309Z,7.15
2019-03-17T22:32:50.829Z,5.87
2019-03-17T22:35:19.343Z,7.67
2019-03-17T22:37:47.964Z,7.05
2019-03-17T22:40:17.546Z,6.37
2019-03-17T22:42:46.030Z,6.45
2019-03-17T22:45:17.281Z,4.33
2019-03-17T22:47:45.883Z,4.60
2019-03-17T22:50:16.551Z,6.58
2019-03-17T22:52:44.994Z,3.87
2019-03-17T22:55:14.402Z,5.35
2019-03-17T22:57:42.854Z,5.78
2019-03-17T23:00:24.460Z,5.35
2019-03-17T23:02:53.794Z,3.95
2019-03-17T23:05:22.348Z,6.85
2019-03-17T23:07:50.896Z,6.87
2019-03-17T23:10:19.355Z,6.17
2019-03-17T23:12:47.933Z,6.83
2019-03-17T23:15:16.553Z,3.90
2019-03-17T23:17:45.116Z,5.35
2019-03-17T23:20:15.364Z,6.58
2019-03-17T23:22:44.075Z,8.08
2019-03-17T23:25:12.934Z,5.50
2019-03-17T23:27:41.418Z,9.23
2019-03-17T23:30:18.360Z,7.83
2019-03-17T23:32:49.213Z,7.12
2019-03-17T23:35:17.252Z,7.62
2019-03-17T23:37:46.180Z,11.78
2019-03-17T23:40:16.670Z,7.85
2019-03-17T23:42:45.594Z,8.75
2019-03-17T23:45:14.695Z,7.45
2019-03-17T23:47:43.283Z,7.80
2019-03-17T23:50:15.175Z,8.10
2019-03-17T23:52:43.786Z,5.95
2019-03-17T23:55:15.393Z,7.33
2019-03-17T23:57:43.849Z,9.40
